sensor_id;sensor_type;location;lat;lon;timestamp;temperature;humidity
65972;SHT31;52726;48.852;9.152;2022-11-15T00:01:51;8.96;86.27
65972;SHT31;52726;48.852;9.152;2022-11-15T00:04:19;8.95;86.38
65972;SHT31;52726;48.852;9.152;2022-11-15T00:06:44;8.95;86.21
65972;SHT31;52726;48.852;9.152;2022-11-15T00:09:10;8.93;86.48
65972;SHT31;52726;48.852;9.152;2022-11-15T00:11:35;8.93;86.15
65972;SHT31;52726;48.852;9.152;2022-11-15T00:14:04;8.99;85.80
65972;SHT31;52726;48.852;9.152;2022-11-15T00:16:29;9.03;85.51
65972;SHT31;52726;48.852;9.152;2022-11-15T00:18:54;9.08;84.88
65972;SHT31;52726;48.852;9.152;2022-11-15T00:21:22;9.12;84.67
65972;SHT31;52726;48.852;9.152;2022-11-15T00:23:47;9.16;84.74
65972;SHT31;52726;48.852;9.152;2022-11-15T00:26:17;9.20;84.33
65972;SHT31;52726;48.852;9.152;2022-11-15T00:28:43;9.27;83.77
65972;SHT31;52726;48.852;9.152;2022-11-15T00:31:12;9.33;83.38
65972;SHT31;52726;48.852;9.152;2022-11-15T00:33:38;9.38;82.86
65972;SHT31;52726;48.852;9.152;2022-11-15T00:36:06;9.41;83.62
65972;SHT31;52726;48.852;9.152;2022-11-15T00:38:32;9.38;83.21
65972;SHT31;52726;48.852;9.152;2022-11-15T00:40:59;9.43;82.51
65972;SHT31;52726;48.852;9.152;2022-11-15T00:43:27;9.44;82.42
65972;SHT31;52726;48.852;9.152;2022-11-15T00:45:52;9.44;82.96
65972;SHT31;52726;48.852;9.152;2022-11-15T00:48:17;9.38;82.86
65972;SHT31;52726;48.852;9.152;2022-11-15T00:50:45;9.33;83.41
65972;SHT31;52726;48.852;9.152;2022-11-15T00:53:11;9.34;83.13
65972;SHT31;52726;48.852;9.152;2022-11-15T00:55:37;9.34;83.15
65972;SHT31;52726;48.852;9.152;2022-11-15T00:58:02;9.33;83.44
65972;SHT31;52726;48.852;9.152;2022-11-15T01:00:27;9.20;84.80
65972;SHT31;52726;48.852;9.152;2022-11-15T01:03:03;9.05;84.71
65972;SHT31;52726;48.852;9.152;2022-11-15T01:05:29;9.00;85.18
65972;SHT31;52726;48.852;9.152;2022-11-15T01:07:55;9.03;84.23
65972;SHT31;52726;48.852;9.152;2022-11-15T01:10:26;8.83;86.23
65972;SHT31;52726;48.852;9.152;2022-11-15T01:12:54;8.69;86.30
65972;SHT31;52726;48.852;9.152;2022-11-15T01:15:20;8.62;86.48
65972;SHT31;52726;48.852;9.152;2022-11-15T01:17:45;8.64;86.05
65972;SHT31;52726;48.852;9.152;2022-11-15T01:20:11;8.45;87.45
65972;SHT31;52726;48.852;9.152;2022-11-15T01:22:37;8.29;87.77
65972;SHT31;52726;48.852;9.152;2022-11-15T01:25:02;8.36;86.84
65972;SHT31;52726;48.852;9.152;2022-11-15T01:27:28;8.48;85.96
65972;SHT31;52726;48.852;9.152;2022-11-15T01:29:53;8.62;85.01
65972;SHT31;52726;48.852;9.152;2022-11-15T01:32:19;8.69;84.59
65972;SHT31;52726;48.852;9.152;2022-11-15T01:34:45;8.72;84.32
65972;SHT31;52726;48.852;9.152;2022-11-15T01:37:13;8.69;84.35
65972;SHT31;52726;48.852;9.152;2022-11-15T01:39:39;8.67;84.57
65972;SHT31;52726;48.852;9.152;2022-11-15T01:42:05;8.61;85.84
65972;SHT31;52726;48.852;9.152;2022-11-15T01:46:56;8.29;87.22
65972;SHT31;52726;48.852;9.152;2022-11-15T01:49:23;8.16;87.17
65972;SHT31;52726;48.852;9.152;2022-11-15T01:51:49;7.97;88.18
65972;SHT31;52726;48.852;9.152;2022-11-15T01:54:17;7.81;88.87
65972;SHT31;52726;48.852;9.152;2022-11-15T01:56:48;7.71;89.20
65972;SHT31;52726;48.852;9.152;2022-11-15T01:59:15;7.62;89.52
65972;SHT31;52726;48.852;9.152;2022-11-15T02:01:41;7.54;90.20
65972;SHT31;52726;48.852;9.152;2022-11-15T02:04:18;7.48;90.28
65972;SHT31;52726;48.852;9.152;2022-11-15T02:06:46;7.48;90.15
65972;SHT31;52726;48.852;9.152;2022-11-15T02:09:13;7.54;90.24
65972;SHT31;52726;48.852;9.152;2022-11-15T02:11:39;7.68;89.20
65972;SHT31;52726;48.852;9.152;2022-11-15T02:14:07;7.82;88.58
65972;SHT31;52726;48.852;9.152;2022-11-15T02:16:58;7.93;87.75
65972;SHT31;52726;48.852;9.152;2022-11-15T02:28:09;8.44;85.91
65972;SHT31;52726;48.852;9.152;2022-11-15T02:30:45;8.48;85.81
65972;SHT31;52726;48.852;9.152;2022-11-15T02:41:54;8.44;86.19
65972;SHT31;52726;48.852;9.152;2022-11-15T02:44:28;8.41;86.58
65972;SHT31;52726;48.852;9.152;2022-11-15T02:47:01;8.41;86.71
65972;SHT31;52726;48.852;9.152;2022-11-15T02:49:49;8.50;86.03
65972;SHT31;52726;48.852;9.152;2022-11-15T02:52:20;8.47;86.21
65972;SHT31;52726;48.852;9.152;2022-11-15T02:55:00;8.47;86.65
65972;SHT31;52726;48.852;9.152;2022-11-15T03:00:08;8.45;86.43
65972;SHT31;52726;48.852;9.152;2022-11-15T03:03:03;8.48;86.23
65972;SHT31;52726;48.852;9.152;2022-11-15T03:11:41;8.52;86.28
65972;SHT31;52726;48.852;9.152;2022-11-15T03:14:20;8.47;86.72
65972;SHT31;52726;48.852;9.152;2022-11-15T03:16:53;8.47;85.91
65972;SHT31;52726;48.852;9.152;2022-11-15T03:19:33;8.43;85.98
65972;SHT31;52726;48.852;9.152;2022-11-15T03:22:02;8.34;86.36
65972;SHT31;52726;48.852;9.152;2022-11-15T03:24:28;8.27;86.52
65972;SHT31;52726;48.852;9.152;2022-11-15T03:26:56;8.20;86.59
65972;SHT31;52726;48.852;9.152;2022-11-15T03:29:27;8.24;86.72
65972;SHT31;52726;48.852;9.152;2022-11-15T03:31:59;8.23;86.63
65972;SHT31;52726;48.852;9.152;2022-11-15T03:36:54;8.20;86.88
65972;SHT31;52726;48.852;9.152;2022-11-15T03:39:20;8.14;87.07
65972;SHT31;52726;48.852;9.152;2022-11-15T03:44:21;8.10;87.29
65972;SHT31;52726;48.852;9.152;2022-11-15T03:49:33;8.03;87.86
65972;SHT31;52726;48.852;9.152;2022-11-15T03:52:07;8.02;88.00
65972;SHT31;52726;48.852;9.152;2022-11-15T03:54:51;7.97;88.42
65972;SHT31;52726;48.852;9.152;2022-11-15T03:57:16;7.96;88.45
65972;SHT31;52726;48.852;9.152;2022-11-15T03:59:42;7.90;88.79
65972;SHT31;52726;48.852;9.152;2022-11-15T04:02:10;7.86;89.00
65972;SHT31;52726;48.852;9.152;2022-11-15T04:04:36;7.83;89.26
65972;SHT31;52726;48.852;9.152;2022-11-15T04:07:07;7.79;89.45
65972;SHT31;52726;48.852;9.152;2022-11-15T04:09:32;7.78;89.52
65972;SHT31;52726;48.852;9.152;2022-11-15T04:12:03;7.76;89.72
65972;SHT31;52726;48.852;9.152;2022-11-15T04:14:31;7.82;89.94
65972;SHT31;52726;48.852;9.152;2022-11-15T04:17:24;7.82;89.63
65972;SHT31;52726;48.852;9.152;2022-11-15T04:19:53;7.82;89.60
65972;SHT31;52726;48.852;9.152;2022-11-15T04:22:46;7.86;89.69
65972;SHT31;52726;48.852;9.152;2022-11-15T04:25:33;7.89;89.62
65972;SHT31;52726;48.852;9.152;2022-11-15T04:27:58;7.89;89.55
65972;SHT31;52726;48.852;9.152;2022-11-15T04:30:27;7.90;89.82
65972;SHT31;52726;48.852;9.152;2022-11-15T04:32:53;7.89;89.73
65972;SHT31;52726;48.852;9.152;2022-11-15T04:35:19;7.86;89.89
65972;SHT31;52726;48.852;9.152;2022-11-15T04:37:44;7.90;89.77
65972;SHT31;52726;48.852;9.152;2022-11-15T04:40:13;7.93;89.62
65972;SHT31;52726;48.852;9.152;2022-11-15T04:42:41;7.93;89.63
65972;SHT31;52726;48.852;9.152;2022-11-15T04:45:10;7.97;89.46
65972;SHT31;52726;48.852;9.152;2022-11-15T04:47:36;7.96;89.98
65972;SHT31;52726;48.852;9.152;2022-11-15T04:50:09;7.95;89.86
65972;SHT31;52726;48.852;9.152;2022-11-15T04:52:37;7.90;89.96
65972;SHT31;52726;48.852;9.152;2022-11-15T04:55:03;7.93;89.74
65972;SHT31;52726;48.852;9.152;2022-11-15T04:57:29;7.92;89.53
65972;SHT31;52726;48.852;9.152;2022-11-15T05:00:16;7.87;89.60
65972;SHT31;52726;48.852;9.152;2022-11-15T05:02:41;7.87;89.43
65972;SHT31;52726;48.852;9.152;2022-11-15T05:05:25;7.83;89.51
65972;SHT31;52726;48.852;9.152;2022-11-15T05:07:51;7.75;89.67
65972;SHT31;52726;48.852;9.152;2022-11-15T05:10:17;7.72;89.87
65972;SHT31;52726;48.852;9.152;2022-11-15T05:12:47;7.69;90.01
65972;SHT31;52726;48.852;9.152;2022-11-15T05:15:13;7.64;90.18
65972;SHT31;52726;48.852;9.152;2022-11-15T05:17:38;7.61;90.10
65972;SHT31;52726;48.852;9.152;2022-11-15T05:20:04;7.62;89.99
65972;SHT31;52726;48.852;9.152;2022-11-15T05:22:30;7.64;89.94
65972;SHT31;52726;48.852;9.152;2022-11-15T05:24:58;7.65;89.74
65972;SHT31;52726;48.852;9.152;2022-11-15T05:27:36;7.65;89.63
65972;SHT31;52726;48.852;9.152;2022-11-15T05:30:10;7.64;89.83
65972;SHT31;52726;48.852;9.152;2022-11-15T05:32:36;7.64;89.73
65972;SHT31;52726;48.852;9.152;2022-11-15T05:35:02;7.64;89.63
65972;SHT31;52726;48.852;9.152;2022-11-15T05:37:36;7.66;89.65
65972;SHT31;52726;48.852;9.152;2022-11-15T05:40:05;7.69;89.53
65972;SHT31;52726;48.852;9.152;2022-11-15T05:42:31;7.68;89.45
65972;SHT31;52726;48.852;9.152;2022-11-15T05:44:57;7.72;89.33
65972;SHT31;52726;48.852;9.152;2022-11-15T05:47:25;7.76;89.47
65972;SHT31;52726;48.852;9.152;2022-11-15T05:49:57;7.76;89.35
65972;SHT31;52726;48.852;9.152;2022-11-15T05:52:33;7.85;89.11
65972;SHT31;52726;48.852;9.152;2022-11-15T05:55:00;7.93;88.77
65972;SHT31;52726;48.852;9.152;2022-11-15T05:57:26;7.93;88.75
65972;SHT31;52726;48.852;9.152;2022-11-15T05:59:55;7.95;89.03
65972;SHT31;52726;48.852;9.152;2022-11-15T06:02:20;7.93;89.21
65972;SHT31;52726;48.852;9.152;2022-11-15T06:04:46;7.92;89.65
65972;SHT31;52726;48.852;9.152;2022-11-15T06:07:11;7.90;89.53
65972;SHT31;52726;48.852;9.152;2022-11-15T06:09:42;7.86;89.50
65972;SHT31;52726;48.852;9.152;2022-11-15T06:12:07;7.85;89.72
65972;SHT31;52726;48.852;9.152;2022-11-15T06:14:33;7.81;89.81
65972;SHT31;52726;48.852;9.152;2022-11-15T06:16:59;7.79;90.08
65972;SHT31;52726;48.852;9.152;2022-11-15T06:19:24;7.78;90.23
65972;SHT31;52726;48.852;9.152;2022-11-15T06:21:50;7.75;90.26
65972;SHT31;52726;48.852;9.152;2022-11-15T06:24:17;7.74;90.18
65972;SHT31;52726;48.852;9.152;2022-11-15T06:26:42;7.74;90.17
65972;SHT31;52726;48.852;9.152;2022-11-15T06:29:08;7.71;90.30
65972;SHT31;52726;48.852;9.152;2022-11-15T06:31:34;7.66;90.64
65972;SHT31;52726;48.852;9.152;2022-11-15T06:34:00;7.69;90.52
65972;SHT31;52726;48.852;9.152;2022-11-15T06:36:25;7.64;90.47
65972;SHT31;52726;48.852;9.152;2022-11-15T06:38:51;7.65;90.58
65972;SHT31;52726;48.852;9.152;2022-11-15T06:41:19;7.65;90.77
65972;SHT31;52726;48.852;9.152;2022-11-15T06:43:47;7.71;90.71
65972;SHT31;52726;48.852;9.152;2022-11-15T06:46:15;7.75;90.72
65972;SHT31;52726;48.852;9.152;2022-11-15T06:48:40;7.74;90.69
65972;SHT31;52726;48.852;9.152;2022-11-15T06:51:06;7.79;90.66
65972;SHT31;52726;48.852;9.152;2022-11-15T06:53:32;7.83;90.35
65972;SHT31;52726;48.852;9.152;2022-11-15T06:56:05;7.89;89.62
65972;SHT31;52726;48.852;9.152;2022-11-15T06:58:37;7.97;89.21
65972;SHT31;52726;48.852;9.152;2022-11-15T07:01:07;8.03;89.04
65972;SHT31;52726;48.852;9.152;2022-11-15T07:03:38;8.12;88.75
65972;SHT31;52726;48.852;9.152;2022-11-15T07:06:07;8.17;88.53
65972;SHT31;52726;48.852;9.152;2022-11-15T07:08:37;8.22;88.27
65972;SHT31;52726;48.852;9.152;2022-11-15T07:11:05;8.26;88.50
65972;SHT31;52726;48.852;9.152;2022-11-15T07:13:34;8.32;88.30
65972;SHT31;52726;48.852;9.152;2022-11-15T07:18:53;8.57;87.48
65972;SHT31;52726;48.852;9.152;2022-11-15T07:21:19;8.76;86.79
65972;SHT31;52726;48.852;9.152;2022-11-15T07:23:47;9.09;85.42
65972;SHT31;52726;48.852;9.152;2022-11-15T07:26:12;9.51;83.94
65972;SHT31;52726;48.852;9.152;2022-11-15T07:28:38;9.47;83.15
65972;SHT31;52726;48.852;9.152;2022-11-15T07:31:08;9.48;82.93
65972;SHT31;52726;48.852;9.152;2022-11-15T07:33:36;9.74;82.53
65972;SHT31;52726;48.852;9.152;2022-11-15T07:36:09;10.12;81.35
65972;SHT31;52726;48.852;9.152;2022-11-15T07:38:35;10.33;80.17
65972;SHT31;52726;48.852;9.152;2022-11-15T07:41:03;10.60;80.32
65972;SHT31;52726;48.852;9.152;2022-11-15T07:43:34;11.16;79.16
65972;SHT31;52726;48.852;9.152;2022-11-15T07:46:11;11.35;78.62
65972;SHT31;52726;48.852;9.152;2022-11-15T07:48:40;11.44;77.57
65972;SHT31;52726;48.852;9.152;2022-11-15T07:51:16;11.32;78.35
65972;SHT31;52726;48.852;9.152;2022-11-15T07:53:44;11.11;78.80
65972;SHT31;52726;48.852;9.152;2022-11-15T07:56:15;10.94;79.01
65972;SHT31;52726;48.852;9.152;2022-11-15T07:58:51;10.78;78.58
65972;SHT31;52726;48.852;9.152;2022-11-15T08:01:18;10.71;79.66
65972;SHT31;52726;48.852;9.152;2022-11-15T08:03:44;10.70;79.82
65972;SHT31;52726;48.852;9.152;2022-11-15T08:06:09;10.77;80.30
65972;SHT31;52726;48.852;9.152;2022-11-15T08:08:40;10.82;80.41
65972;SHT31;52726;48.852;9.152;2022-11-15T08:11:06;10.85;80.35
65972;SHT31;52726;48.852;9.152;2022-11-15T08:13:31;10.87;81.26
65972;SHT31;52726;48.852;9.152;2022-11-15T08:16:00;10.85;80.09
65972;SHT31;52726;48.852;9.152;2022-11-15T08:18:30;10.85;79.78
65972;SHT31;52726;48.852;9.152;2022-11-15T08:21:03;10.81;80.23
65972;SHT31;52726;48.852;9.152;2022-11-15T08:23:32;10.81;79.66
65972;SHT31;52726;48.852;9.152;2022-11-15T08:26:03;10.91;80.21
65972;SHT31;52726;48.852;9.152;2022-11-15T08:28:30;11.04;79.94
65972;SHT31;52726;48.852;9.152;2022-11-15T08:30:58;11.14;79.19
65972;SHT31;52726;48.852;9.152;2022-11-15T08:33:30;11.28;78.27
65972;SHT31;52726;48.852;9.152;2022-11-15T08:35:59;11.37;78.20
65972;SHT31;52726;48.852;9.152;2022-11-15T08:38:28;11.43;78.33
65972;SHT31;52726;48.852;9.152;2022-11-15T08:41:03;11.49;78.79
65972;SHT31;52726;48.852;9.152;2022-11-15T08:43:35;11.49;78.30
65972;SHT31;52726;48.852;9.152;2022-11-15T08:46:12;11.60;78.58
65972;SHT31;52726;48.852;9.152;2022-11-15T08:48:41;11.70;78.00
65972;SHT31;52726;48.852;9.152;2022-11-15T08:51:14;11.74;77.72
65972;SHT31;52726;48.852;9.152;2022-11-15T08:53:45;11.78;77.58
65972;SHT31;52726;48.852;9.152;2022-11-15T08:56:18;11.87;77.78
65972;SHT31;52726;48.852;9.152;2022-11-15T08:58:52;12.02;76.10
65972;SHT31;52726;48.852;9.152;2022-11-15T09:01:26;12.11;76.99
65972;SHT31;52726;48.852;9.152;2022-11-15T09:04:05;12.28;76.78
65972;SHT31;52726;48.852;9.152;2022-11-15T09:06:41;12.36;76.32
65972;SHT31;52726;48.852;9.152;2022-11-15T09:09:16;12.41;76.75
65972;SHT31;52726;48.852;9.152;2022-11-15T09:11:44;12.43;77.05
65972;SHT31;52726;48.852;9.152;2022-11-15T09:14:15;12.43;77.52
65972;SHT31;52726;48.852;9.152;2022-11-15T09:17:03;12.42;76.82
65972;SHT31;52726;48.852;9.152;2022-11-15T09:19:35;12.38;75.98
65972;SHT31;52726;48.852;9.152;2022-11-15T09:22:07;12.39;75.32
65972;SHT31;52726;48.852;9.152;2022-11-15T09:24:33;12.38;75.89
65972;SHT31;52726;48.852;9.152;2022-11-15T09:27:01;12.36;77.80
65972;SHT31;52726;48.852;9.152;2022-11-15T09:29:26;12.35;74.96
65972;SHT31;52726;48.852;9.152;2022-11-15T09:31:52;12.39;74.29
65972;SHT31;52726;48.852;9.152;2022-11-15T09:34:20;12.26;74.73
65972;SHT31;52726;48.852;9.152;2022-11-15T09:36:48;12.31;76.14
65972;SHT31;52726;48.852;9.152;2022-11-15T09:39:14;12.33;75.15
65972;SHT31;52726;48.852;9.152;2022-11-15T09:41:50;12.41;76.43
65972;SHT31;52726;48.852;9.152;2022-11-15T09:44:44;12.46;75.38
65972;SHT31;52726;48.852;9.152;2022-11-15T09:50:52;12.67;75.92
65972;SHT31;52726;48.852;9.152;2022-11-15T09:53:31;12.81;74.35
65972;SHT31;52726;48.852;9.152;2022-11-15T09:56:21;12.94;74.21
65972;SHT31;52726;48.852;9.152;2022-11-15T10:01:58;13.10;72.84
65972;SHT31;52726;48.852;9.152;2022-11-15T10:04:25;13.18;73.32
65972;SHT31;52726;48.852;9.152;2022-11-15T10:07:22;13.28;71.69
65972;SHT31;52726;48.852;9.152;2022-11-15T10:09:59;13.24;72.49
65972;SHT31;52726;48.852;9.152;2022-11-15T10:12:28;13.25;72.43
65972;SHT31;52726;48.852;9.152;2022-11-15T10:15:12;13.28;75.54
65972;SHT31;52726;48.852;9.152;2022-11-15T10:20:50;13.31;73.25
65972;SHT31;52726;48.852;9.152;2022-11-15T10:23:19;13.32;72.92
65972;SHT31;52726;48.852;9.152;2022-11-15T10:25:56;13.32;72.38
65972;SHT31;52726;48.852;9.152;2022-11-15T10:28:33;13.35;73.07
65972;SHT31;52726;48.852;9.152;2022-11-15T10:31:23;13.34;74.18
65972;SHT31;52726;48.852;9.152;2022-11-15T10:34:17;13.32;73.57
65972;SHT31;52726;48.852;9.152;2022-11-15T10:37:05;13.34;73.65
65972;SHT31;52726;48.852;9.152;2022-11-15T10:39:41;13.34;74.94
65972;SHT31;52726;48.852;9.152;2022-11-15T10:42:26;13.28;73.40
65972;SHT31;52726;48.852;9.152;2022-11-15T10:44:52;13.22;73.50
65972;SHT31;52726;48.852;9.152;2022-11-15T10:47:29;13.22;73.61
65972;SHT31;52726;48.852;9.152;2022-11-15T10:50:28;13.22;72.87
65972;SHT31;52726;48.852;9.152;2022-11-15T10:53:38;13.18;73.88
65972;SHT31;52726;48.852;9.152;2022-11-15T10:56:23;13.18;74.15
65972;SHT31;52726;48.852;9.152;2022-11-15T10:58:55;13.21;74.01
65972;SHT31;52726;48.852;9.152;2022-11-15T11:01:29;13.21;74.55
65972;SHT31;52726;48.852;9.152;2022-11-15T11:04:00;13.19;73.29
65972;SHT31;52726;48.852;9.152;2022-11-15T11:06:29;13.21;72.96
65972;SHT31;52726;48.852;9.152;2022-11-15T11:09:09;13.12;73.06
65972;SHT31;52726;48.852;9.152;2022-11-15T11:11:59;13.07;72.44
65972;SHT31;52726;48.852;9.152;2022-11-15T11:14:46;13.01;73.03
65972;SHT31;52726;48.852;9.152;2022-11-15T11:22:38;12.96;75.49
65972;SHT31;52726;48.852;9.152;2022-11-15T11:31:24;13.06;74.88
65972;SHT31;52726;48.852;9.152;2022-11-15T11:36:36;13.14;75.10
65972;SHT31;52726;48.852;9.152;2022-11-15T11:39:31;13.18;74.07
65972;SHT31;52726;48.852;9.152;2022-11-15T11:47:51;13.32;74.22
65972;SHT31;52726;48.852;9.152;2022-11-15T11:50:24;13.37;73.62
65972;SHT31;52726;48.852;9.152;2022-11-15T11:56:14;13.49;72.53
65972;SHT31;52726;48.852;9.152;2022-11-15T11:58:44;13.52;72.68
65972;SHT31;52726;48.852;9.152;2022-11-15T12:01:38;13.56;74.63
65972;SHT31;52726;48.852;9.152;2022-11-15T12:04:30;13.58;73.99
65972;SHT31;52726;48.852;9.152;2022-11-15T12:07:07;13.61;73.37
65972;SHT31;52726;48.852;9.152;2022-11-15T12:09:39;13.67;74.04
65972;SHT31;52726;48.852;9.152;2022-11-15T12:14:51;13.76;71.39
65972;SHT31;52726;48.852;9.152;2022-11-15T12:17:30;13.76;71.37
65972;SHT31;52726;48.852;9.152;2022-11-15T12:20:04;13.76;71.87
65972;SHT31;52726;48.852;9.152;2022-11-15T12:22:44;13.70;71.88
65972;SHT31;52726;48.852;9.152;2022-11-15T12:25:45;13.73;72.36
65972;SHT31;52726;48.852;9.152;2022-11-15T12:33:40;13.67;73.85
65972;SHT31;52726;48.852;9.152;2022-11-15T12:38:58;13.58;73.97
65972;SHT31;52726;48.852;9.152;2022-11-15T12:41:25;13.56;73.58
65972;SHT31;52726;48.852;9.152;2022-11-15T12:43:54;13.56;72.86
65972;SHT31;52726;48.852;9.152;2022-11-15T12:49:02;13.59;73.02
65972;SHT31;52726;48.852;9.152;2022-11-15T12:59:57;13.51;74.67
65972;SHT31;52726;48.852;9.152;2022-11-15T13:02:40;13.51;74.65
65972;SHT31;52726;48.852;9.152;2022-11-15T13:12:49;13.52;75.76
65972;SHT31;52726;48.852;9.152;2022-11-15T13:17:52;13.46;75.14
65972;SHT31;52726;48.852;9.152;2022-11-15T13:20:32;13.45;75.07
65972;SHT31;52726;48.852;9.152;2022-11-15T13:26:12;13.42;75.63
65972;SHT31;52726;48.852;9.152;2022-11-15T13:28:48;13.38;76.18
65972;SHT31;52726;48.852;9.152;2022-11-15T13:31:29;13.37;75.89
65972;SHT31;52726;48.852;9.152;2022-11-15T13:34:20;13.35;76.68
65972;SHT31;52726;48.852;9.152;2022-11-15T13:36:47;13.34;76.83
65972;SHT31;52726;48.852;9.152;2022-11-15T13:39:33;13.32;75.83
65972;SHT31;52726;48.852;9.152;2022-11-15T13:42:02;13.31;76.19
65972;SHT31;52726;48.852;9.152;2022-11-15T13:44:31;13.28;76.56
65972;SHT31;52726;48.852;9.152;2022-11-15T13:47:09;13.27;77.20
65972;SHT31;52726;48.852;9.152;2022-11-15T13:49:40;13.24;77.29
65972;SHT31;52726;48.852;9.152;2022-11-15T13:52:19;13.25;77.10
65972;SHT31;52726;48.852;9.152;2022-11-15T13:57:15;13.24;76.85
65972;SHT31;52726;48.852;9.152;2022-11-15T14:00:04;13.21;77.13
65972;SHT31;52726;48.852;9.152;2022-11-15T14:02:32;13.18;76.91
65972;SHT31;52726;48.852;9.152;2022-11-15T14:05:17;13.14;77.83
65972;SHT31;52726;48.852;9.152;2022-11-15T14:07:57;13.12;77.04
65972;SHT31;52726;48.852;9.152;2022-11-15T14:10:32;13.12;77.16
65972;SHT31;52726;48.852;9.152;2022-11-15T14:12:59;13.10;77.14
65972;SHT31;52726;48.852;9.152;2022-11-15T14:15:28;13.04;77.67
65972;SHT31;52726;48.852;9.152;2022-11-15T14:17:54;12.98;77.58
65972;SHT31;52726;48.852;9.152;2022-11-15T14:20:30;12.96;77.79
65972;SHT31;52726;48.852;9.152;2022-11-15T14:23:03;12.90;78.24
65972;SHT31;52726;48.852;9.152;2022-11-15T14:25:35;12.83;78.37
65972;SHT31;52726;48.852;9.152;2022-11-15T14:28:08;12.77;79.76
65972;SHT31;52726;48.852;9.152;2022-11-15T14:30:33;12.70;79.51
65972;SHT31;52726;48.852;9.152;2022-11-15T14:32:59;12.70;79.74
65972;SHT31;52726;48.852;9.152;2022-11-15T14:35:24;12.67;80.02
65972;SHT31;52726;48.852;9.152;2022-11-15T14:37:49;12.62;80.37
65972;SHT31;52726;48.852;9.152;2022-11-15T14:40:18;12.59;80.71
65972;SHT31;52726;48.852;9.152;2022-11-15T14:42:45;12.56;80.62
65972;SHT31;52726;48.852;9.152;2022-11-15T14:51:33;12.46;81.45
65972;SHT31;52726;48.852;9.152;2022-11-15T14:53:58;12.43;81.34
65972;SHT31;52726;48.852;9.152;2022-11-15T14:56:24;12.39;81.48
65972;SHT31;52726;48.852;9.152;2022-11-15T14:58:49;12.38;81.58
65972;SHT31;52726;48.852;9.152;2022-11-15T15:01:21;12.38;82.01
65972;SHT31;52726;48.852;9.152;2022-11-15T15:03:46;12.36;81.74
65972;SHT31;52726;48.852;9.152;2022-11-15T15:06:12;12.36;81.17
65972;SHT31;52726;48.852;9.152;2022-11-15T15:08:39;12.32;80.46
65972;SHT31;52726;48.852;9.152;2022-11-15T15:11:19;12.31;80.43
65972;SHT31;52726;48.852;9.152;2022-11-15T15:13:46;12.33;82.18
65972;SHT31;52726;48.852;9.152;2022-11-15T15:16:11;12.29;81.15
65972;SHT31;52726;48.852;9.152;2022-11-15T15:18:36;12.25;81.63
65972;SHT31;52726;48.852;9.152;2022-11-15T15:21:02;12.24;81.10
65972;SHT31;52726;48.852;9.152;2022-11-15T15:23:32;12.21;81.45
65972;SHT31;52726;48.852;9.152;2022-11-15T15:25:58;12.14;81.91
65972;SHT31;52726;48.852;9.152;2022-11-15T15:28:23;12.11;81.98
65972;SHT31;52726;48.852;9.152;2022-11-15T15:30:49;12.06;80.75
65972;SHT31;52726;48.852;9.152;2022-11-15T15:33:17;12.05;80.72
65972;SHT31;52726;48.852;9.152;2022-11-15T15:35:43;12.01;81.58
65972;SHT31;52726;48.852;9.152;2022-11-15T15:38:12;11.99;80.98
65972;SHT31;52726;48.852;9.152;2022-11-15T15:40:38;11.97;81.44
65972;SHT31;52726;48.852;9.152;2022-11-15T15:43:03;11.93;81.57
65972;SHT31;52726;48.852;9.152;2022-11-15T15:45:30;11.93;81.17
65972;SHT31;52726;48.852;9.152;2022-11-15T15:47:55;11.90;80.82
65972;SHT31;52726;48.852;9.152;2022-11-15T15:50:29;11.95;80.22
65972;SHT31;52726;48.852;9.152;2022-11-15T15:52:59;11.97;80.34
65972;SHT31;52726;48.852;9.152;2022-11-15T15:55:25;11.94;81.02
65972;SHT31;52726;48.852;9.152;2022-11-15T15:57:51;11.91;80.88
65972;SHT31;52726;48.852;9.152;2022-11-15T16:00:17;11.91;81.12
65972;SHT31;52726;48.852;9.152;2022-11-15T16:02:43;11.90;81.33
65972;SHT31;52726;48.852;9.152;2022-11-15T16:05:09;11.90;81.23
65972;SHT31;52726;48.852;9.152;2022-11-15T16:07:35;11.88;81.31
65972;SHT31;52726;48.852;9.152;2022-11-15T16:10:24;11.88;81.42
65972;SHT31;52726;48.852;9.152;2022-11-15T16:12:55;11.87;81.35
65972;SHT31;52726;48.852;9.152;2022-11-15T16:15:22;11.88;81.65
65972;SHT31;52726;48.852;9.152;2022-11-15T16:17:53;11.90;81.57
65972;SHT31;52726;48.852;9.152;2022-11-15T16:22:57;11.88;82.00
65972;SHT31;52726;48.852;9.152;2022-11-15T16:25:23;11.85;82.13
65972;SHT31;52726;48.852;9.152;2022-11-15T16:27:49;11.88;81.71
65972;SHT31;52726;48.852;9.152;2022-11-15T16:30:16;11.90;81.78
65972;SHT31;52726;48.852;9.152;2022-11-15T16:32:41;11.88;81.88
65972;SHT31;52726;48.852;9.152;2022-11-15T16:35:10;11.93;81.33
65972;SHT31;52726;48.852;9.152;2022-11-15T16:37:36;11.93;81.26
65972;SHT31;52726;48.852;9.152;2022-11-15T16:40:02;11.88;81.49
65972;SHT31;52726;48.852;9.152;2022-11-15T16:42:27;11.90;81.20
65972;SHT31;52726;48.852;9.152;2022-11-15T16:44:52;11.87;81.13
65972;SHT31;52726;48.852;9.152;2022-11-15T16:47:18;11.88;81.43
65972;SHT31;52726;48.852;9.152;2022-11-15T16:49:44;11.87;82.01
65972;SHT31;52726;48.852;9.152;2022-11-15T16:52:10;11.81;81.62
65972;SHT31;52726;48.852;9.152;2022-11-15T16:54:36;11.81;81.57
65972;SHT31;52726;48.852;9.152;2022-11-15T16:57:01;11.84;80.62
65972;SHT31;52726;48.852;9.152;2022-11-15T16:59:26;11.87;80.29
65972;SHT31;52726;48.852;9.152;2022-11-15T17:01:51;11.85;81.03
65972;SHT31;52726;48.852;9.152;2022-11-15T17:04:18;11.80;81.00
65972;SHT31;52726;48.852;9.152;2022-11-15T17:06:46;11.81;80.74
65972;SHT31;52726;48.852;9.152;2022-11-15T17:09:20;11.77;80.87
65972;SHT31;52726;48.852;9.152;2022-11-15T17:11:48;11.76;81.37
65972;SHT31;52726;48.852;9.152;2022-11-15T17:14:15;11.71;81.28
65972;SHT31;52726;48.852;9.152;2022-11-15T17:16:40;11.74;80.68
65972;SHT31;52726;48.852;9.152;2022-11-15T17:19:26;11.76;80.37
65972;SHT31;52726;48.852;9.152;2022-11-15T17:21:52;11.78;80.25
65972;SHT31;52726;48.852;9.152;2022-11-15T17:24:18;11.81;80.12
65972;SHT31;52726;48.852;9.152;2022-11-15T17:26:45;11.78;80.45
65972;SHT31;52726;48.852;9.152;2022-11-15T17:29:10;11.80;80.25
65972;SHT31;52726;48.852;9.152;2022-11-15T17:31:36;11.76;80.57
65972;SHT31;52726;48.852;9.152;2022-11-15T17:34:03;11.73;80.52
65972;SHT31;52726;48.852;9.152;2022-11-15T17:36:29;11.71;80.41
65972;SHT31;52726;48.852;9.152;2022-11-15T17:38:54;11.74;80.70
65972;SHT31;52726;48.852;9.152;2022-11-15T17:41:20;11.69;81.16
65972;SHT31;52726;48.852;9.152;2022-11-15T17:43:46;11.74;80.18
65972;SHT31;52726;48.852;9.152;2022-11-15T17:46:14;11.73;80.55
65972;SHT31;52726;48.852;9.152;2022-11-15T17:48:40;11.62;81.70
65972;SHT31;52726;48.852;9.152;2022-11-15T17:51:07;11.56;81.62
65972;SHT31;52726;48.852;9.152;2022-11-15T17:53:37;11.52;81.62
65972;SHT31;52726;48.852;9.152;2022-11-15T17:56:14;11.47;81.97
65972;SHT31;52726;48.852;9.152;2022-11-15T17:58:40;11.43;82.24